This is the latest recevied weather packets stored in our database for station/object KF6ILA. If no packets are shown the sender has not sent any weather packets the latest 10 day(s).
| Time | Temp. | Humidity | Pressure | Rain* | Wind** | Luminosity | Snow |
|---|---|---|---|---|---|---|---|
| 1788038099 | 31.67° C | 37% | 1016.7 hPa | 0 mm | - | 881 W/m² | - |
| 1788037208 | 32.22° C | 36% | 1016.8 hPa | 0 mm | - | 909 W/m² | - |
| 1788036911 | 31.67° C | 36% | 1016.9 hPa | 0 mm | - | 919 W/m² | - |
| 1788036020 | 31.11° C | 37% | 1017 hPa | 0 mm | - | 928 W/m² | - |
| 1788034841 | 30.56° C | 38% | - | 0 mm | - | - | - |
| 1788034238 | 30.56° C | 37% | 1017.1 hPa | 0 mm | - | 953 W/m² | - |
| 1788033941 | 30.56° C | 37% | 1017.1 hPa | 0 mm | - | 951 W/m² | - |
| 1788033644 | 30.56° C | - | - | 0 mm | - | - | - |
| 1788033644 | 30.56° C | - | - | 0 mm | - | - | - |
| 1788033050 | 31.11° C | 37% | 1017.5 hPa | 0 mm | - | 958 W/m² | - |
| 1788032753 | 30.56° C | 38% | 1017.5 hPa | 0 mm | - | 956 W/m² | - |
| 1788032456 | 31.11° C | 38% | 1017.4 hPa | 0 mm | - | 956 W/m² | - |
| 1788032160 | 31.11° C | 37% | 1017.5 hPa | 0 mm | - | 954 W/m² | - |
| 1788031565 | 30.56° C | 38% | 1017.6 hPa | 0 mm | - | 956 W/m² | - |
| 1788031268 | 30.56° C | 38% | 1017.6 hPa | 0 mm | - | 951 W/m² | - |
| 1788030674 | 30° C | 39% | 1017.7 hPa | 0 mm | - | 949 W/m² | - |
| 1788030377 | 30° C | 38% | 1017.7 hPa | 0 mm | - | 939 W/m² | - |
| 1788030080 | 30° C | 39% | 1017.8 hPa | 0 mm | - | 939 W/m² | - |
| 1788030006 | 29.44° C | 38% | 1018.4 hPa | 0 mm | - | 860 W/m² | - |
| 1788029783 | 30° C | 38% | 1017.9 hPa | 0 mm | - | 932 W/m² | - |
| 1788029486 | 30° C | 39% | 1018 hPa | 0 mm | - | 926 W/m² | - |
| 1788029189 | 30° C | 39% | 1018.1 hPa | 0 mm | - | 923 W/m² | - |
| 1788028892 | 30° C | 38% | 1018.1 hPa | 0 mm | - | 916 W/m² | - |
| 1788028595 | 30° C | 37% | 1018.2 hPa | 0 mm | - | 911 W/m² | - |
| 1788028001 | 30° C | 38% | 1018.3 hPa | 0 mm | - | 900 W/m² | - |
* Rain latest hour (hover to see other rain measurements)
** Current wind speed in m/s (hover to see current wind gust speed)